Time,TemperatureF,DewpointF,PressureIn,WindDirection,WindDirectionDegrees,WindSpeedMPH,WindSpeedGustMPH,Humidity,HourlyPrecipIn,Conditions,Clouds,dailyrainin,SolarRadiationWatts/m^2,SoftwareType,DateUTC
2013-12-18 00:00:00,42.8,38.3,30.03,NNW,344,0.0,0.0,84,0.00,,---,0.00,0.00,VWS V14.01,2013-12-18 05:00:00,
2013-12-18 00:01:00,42.7,38.2,30.03,NNW,344,0.0,0.0,84,0.00,,---,0.00,0.00,VWS V14.01,2013-12-18 05:01:00,
2013-12-18 00:06:00,42.4,38.2,30.03,NNW,344,0.0,0.0,85,0.00,,---,0.00,0.00,VWS V14.01,2013-12-18 05:06:00,
2013-12-18 00:11:00,42.1,37.9,30.03,NNW,344,0.0,0.0,85,0.00,,---,0.00,0.00,VWS V14.01,2013-12-18 05:11:00,
2013-12-18 00:16:00,41.8,37.9,30.03,NNW,344,1.0,1.0,86,0.00,,---,0.00,0.00,VWS V14.01,2013-12-18 05:16:00,
2013-12-18 00:21:00,41.5,37.6,30.03,NNW,344,0.0,1.0,86,0.00,,---,0.00,0.00,VWS V14.01,2013-12-18 05:21:00,
2013-12-18 00:26:00,41.3,37.4,30.03,NNW,344,0.0,1.0,86,0.00,,---,0.00,0.00,VWS V14.01,2013-12-18 05:26:00,
2013-12-18 00:31:00,41.1,37.2,30.03,NNW,344,0.0,0.0,86,0.00,,---,0.00,0.00,VWS V14.01,2013-12-18 05:31:00,
2013-12-18 00:36:00,40.8,36.7,30.03,NNW,344,0.0,0.0,85,0.00,,---,0.00,0.00,VWS V14.01,2013-12-18 05:36:00,
2013-12-18 00:41:00,40.4,36.0,30.03,NNW,344,0.0,0.0,84,0.00,,---,0.00,0.00,VWS V14.01,2013-12-18 05:41:00,
2013-12-18 00:46:00,40.0,35.6,30.03,NNW,344,0.0,0.0,84,0.00,,---,0.00,0.00,VWS V14.01,2013-12-18 05:46:00,
2013-12-18 00:51:00,39.6,35.5,30.04,NNW,344,0.0,0.0,85,0.00,,---,0.00,0.00,VWS V14.01,2013-12-18 05:51:00,
2013-12-18 00:56:00,39.3,35.2,30.04,NNW,344,0.0,0.0,85,0.00,,---,0.00,0.00,VWS V14.01,2013-12-18 05:56:00,
2013-12-18 01:01:00,38.9,34.8,30.04,NNW,344,0.0,0.0,85,0.00,,---,0.00,0.00,VWS V14.01,2013-12-18 06:01:00,
2013-12-18 01:06:00,38.5,34.4,30.04,NNW,344,0.0,0.0,85,0.00,,---,0.00,0.00,VWS V14.01,2013-12-18 06:06:00,
2013-12-18 01:11:00,38.2,34.4,30.04,NNW,344,0.0,0.0,86,0.00,,---,0.00,0.00,VWS V14.01,2013-12-18 06:11:00,
2013-12-18 01:16:00,37.8,33.7,30.04,NNW,344,0.0,0.0,85,0.00,,---,0.00,0.00,VWS V14.01,2013-12-18 06:16:00,
2013-12-18 01:21:00,37.5,33.7,30.05,NNW,344,0.0,0.0,86,0.00,,---,0.00,0.00,VWS V14.01,2013-12-18 06:21:00,
2013-12-18 01:26:00,37.3,33.8,30.05,NNW,344,0.0,1.0,87,0.00,,---,0.00,0.00,VWS V14.01,2013-12-18 06:26:00,
2013-12-18 01:31:00,37.0,33.5,30.05,NNW,344,0.0,0.0,87,0.00,,---,0.00,0.00,VWS V14.01,2013-12-18 06:31:00,
2013-12-18 01:36:00,36.6,33.1,30.06,NNW,344,0.0,1.0,87,0.00,,---,0.00,0.00,VWS V14.01,2013-12-18 06:36:00,
2013-12-18 01:41:00,36.4,33.2,30.06,NNW,344,0.0,1.0,88,0.00,,---,0.00,0.00,VWS V14.01,2013-12-18 06:41:00,
2013-12-18 01:46:00,36.1,32.9,30.06,NNW,344,0.0,1.0,88,0.00,,---,0.00,0.00,VWS V14.01,2013-12-18 06:46:00,
2013-12-18 01:51:00,35.9,32.7,30.06,NNW,344,0.0,1.0,88,0.00,,---,0.00,0.00,VWS V14.01,2013-12-18 06:51:00,
2013-12-18 01:56:00,35.6,32.4,30.07,NNW,344,0.0,1.0,88,0.00,,---,0.00,0.00,VWS V14.01,2013-12-18 06:56:00,
2013-12-18 02:01:00,35.3,32.1,30.07,NNW,344,0.0,0.0,88,0.00,,---,0.00,0.00,VWS V14.01,2013-12-18 07:01:00,
2013-12-18 02:06:00,35.1,31.9,30.07,NNW,344,0.0,0.0,88,0.00,,---,0.00,0.00,VWS V14.01,2013-12-18 07:06:00,
2013-12-18 02:11:00,34.9,32.0,30.07,NNW,344,0.0,0.0,89,0.00,,---,0.00,0.00,VWS V14.01,2013-12-18 07:11:00,
2013-12-18 02:16:00,34.8,31.9,30.07,NNW,344,0.0,2.0,89,0.00,,---,0.00,0.00,VWS V14.01,2013-12-18 07:16:00,
2013-12-18 02:21:00,35.1,32.5,30.07,NNW,344,0.0,2.0,90,0.00,,---,0.00,0.00,VWS V14.01,2013-12-18 07:21:00,
2013-12-18 02:26:00,35.5,32.9,30.07,WNW,294,0.0,2.0,90,0.00,,---,0.00,0.00,VWS V14.01,2013-12-18 07:26:00,
2013-12-18 02:31:00,35.8,33.2,30.08,NNW,340,0.0,1.0,90,0.00,,---,0.00,0.00,VWS V14.01,2013-12-18 07:31:00,
2013-12-18 02:36:00,36.4,33.5,30.08,WNW,294,0.0,2.0,89,0.00,,---,0.00,0.00,VWS V14.01,2013-12-18 07:36:00,
2013-12-18 02:41:00,36.9,33.1,30.08,North,5,0.0,6.0,86,0.00,,---,0.00,0.00,VWS V14.01,2013-12-18 07:41:00,
2013-12-18 02:46:00,37.3,32.9,30.09,North,355,0.0,6.0,84,0.00,,---,0.00,0.00,VWS V14.01,2013-12-18 07:46:00,
2013-12-18 02:51:00,37.7,32.1,30.09,NNW,330,0.0,6.0,80,0.00,,---,0.00,0.00,VWS V14.01,2013-12-18 07:51:00,
2013-12-18 02:56:00,38.1,31.5,30.09,North,350,0.0,6.0,77,0.00,,---,0.00,0.00,VWS V14.01,2013-12-18 07:56:00,
2013-12-18 03:01:00,38.4,30.9,30.09,NNW,329,0.0,1.0,74,0.00,,---,0.00,0.00,VWS V14.01,2013-12-18 08:01:00,
2013-12-18 03:06:00,38.6,30.7,30.10,NW,310,0.0,2.0,73,0.00,,---,0.00,0.00,VWS V14.01,2013-12-18 08:06:00,
2013-12-18 03:11:00,38.7,30.5,30.10,NW,310,0.0,2.0,72,0.00,,---,0.00,0.00,VWS V14.01,2013-12-18 08:11:00,
2013-12-18 03:16:00,38.7,29.8,30.10,NW,321,0.0,7.0,70,0.00,,---,0.00,0.00,VWS V14.01,2013-12-18 08:16:00,
2013-12-18 03:21:00,38.7,29.4,30.10,NW,321,0.0,7.0,69,0.00,,---,0.00,0.00,VWS V14.01,2013-12-18 08:21:00,
2013-12-18 03:26:00,38.7,29.1,30.10,NW,321,0.0,7.0,68,0.00,,---,0.00,0.00,VWS V14.01,2013-12-18 08:26:00,
2013-12-18 03:31:00,38.6,28.6,30.11,NW,321,0.0,1.0,67,0.00,,---,0.00,0.00,VWS V14.01,2013-12-18 08:31:00,
2013-12-18 03:36:00,38.6,28.2,30.11,NW,322,0.0,2.0,66,0.00,,---,0.00,0.00,VWS V14.01,2013-12-18 08:36:00,
2013-12-18 03:41:00,38.5,28.1,30.11,NW,323,1.0,3.0,66,0.00,,---,0.00,0.00,VWS V14.01,2013-12-18 08:41:00,
2013-12-18 03:46:00,38.4,27.7,30.10,NNW,332,2.0,5.0,65,0.00,,---,0.00,0.00,VWS V14.01,2013-12-18 08:46:00,
2013-12-18 03:51:00,38.3,27.6,30.11,NNW,332,0.0,5.0,65,0.00,,---,0.00,0.00,VWS V14.01,2013-12-18 08:51:00,
2013-12-18 03:56:00,38.3,27.2,30.11,NW,317,0.0,5.0,64,0.00,,---,0.00,0.00,VWS V14.01,2013-12-18 08:56:00,
2013-12-18 04:01:00,38.2,27.9,30.11,NW,317,0.0,0.0,66,0.00,,---,0.00,0.00,VWS V14.01,2013-12-18 09:01:00,
2013-12-18 04:06:00,38.1,28.1,30.11,NW,317,0.0,0.0,67,0.00,,---,0.00,0.00,VWS V14.01,2013-12-18 09:06:00,
2013-12-18 04:11:00,37.8,28.6,30.12,NW,317,0.0,0.0,69,0.00,,---,0.00,0.00,VWS V14.01,2013-12-18 09:11:00,
2013-12-18 04:16:00,37.4,28.5,30.12,NW,317,0.0,0.0,70,0.00,,---,0.00,0.00,VWS V14.01,2013-12-18 09:16:00,
2013-12-18 04:21:00,37.1,27.9,30.12,NW,317,0.0,0.0,69,0.00,,---,0.00,0.00,VWS V14.01,2013-12-18 09:21:00,
2013-12-18 04:26:00,36.8,27.2,30.12,NW,317,0.0,0.0,68,0.00,,---,0.00,0.00,VWS V14.01,2013-12-18 09:26:00,
2013-12-18 04:31:00,36.4,26.9,30.12,NW,317,0.0,1.0,68,0.00,,---,0.00,0.00,VWS V14.01,2013-12-18 09:31:00,
2013-12-18 04:36:00,36.1,26.2,30.12,NW,317,0.0,2.0,67,0.00,,---,0.00,0.00,VWS V14.01,2013-12-18 09:36:00,
2013-12-18 04:41:00,36.0,26.1,30.12,NW,317,0.0,2.0,67,0.00,,---,0.00,0.00,VWS V14.01,2013-12-18 09:41:00,
2013-12-18 04:46:00,36.0,26.1,30.12,NW,317,0.0,2.0,67,0.00,,---,0.00,0.00,VWS V14.01,2013-12-18 09:46:00,
2013-12-18 04:51:00,35.9,26.0,30.12,NW,317,0.0,2.0,67,0.00,,---,0.00,0.00,VWS V14.01,2013-12-18 09:51:00,
2013-12-18 04:56:00,35.8,26.6,30.13,NW,317,0.0,2.0,69,0.00,,---,0.00,0.00,VWS V14.01,2013-12-18 09:56:00,
2013-12-18 05:01:00,35.5,27.4,30.14,NW,317,0.0,0.0,72,0.00,,---,0.00,0.00,VWS V14.01,2013-12-18 10:01:00,
2013-12-18 05:06:00,35.2,27.1,30.14,NW,317,0.0,1.0,72,0.00,,---,0.00,0.00,VWS V14.01,2013-12-18 10:06:00,
2013-12-18 05:11:00,35.0,26.6,30.14,NW,317,0.0,1.0,71,0.00,,---,0.00,0.00,VWS V14.01,2013-12-18 10:11:00,
2013-12-18 05:16:00,34.6,25.5,30.14,NW,317,0.0,2.0,69,0.00,,---,0.00,0.00,VWS V14.01,2013-12-18 10:16:00,
2013-12-18 05:21:00,34.6,25.1,30.14,NW,317,0.0,2.0,68,0.00,,---,0.00,0.00,VWS V14.01,2013-12-18 10:21:00,
2013-12-18 05:26:00,34.6,24.8,30.14,NNW,339,1.0,2.0,67,0.00,,---,0.00,0.00,VWS V14.01,2013-12-18 10:26:00,
2013-12-18 05:30:00,34.8,24.6,30.14,NNW,333,0.0,4.0,66,0.00,,---,0.00,0.00,VWS V14.01,2013-12-18 10:30:00,
2013-12-18 05:35:00,35.0,24.4,30.15,NW,325,0.0,4.0,65,0.00,,---,0.00,0.00,VWS V14.01,2013-12-18 10:35:00,
2013-12-18 05:40:00,35.2,24.3,30.15,West,262,0.0,4.0,64,0.00,,---,0.00,0.00,VWS V14.01,2013-12-18 10:40:00,
2013-12-18 05:45:00,35.3,24.0,30.15,NW,318,1.0,4.0,63,0.00,,---,0.00,0.00,VWS V14.01,2013-12-18 10:45:00,
2013-12-18 05:50:00,35.5,23.8,30.15,NW,314,0.0,4.0,62,0.00,,---,0.00,0.00,VWS V14.01,2013-12-18 10:50:00,
2013-12-18 05:55:00,35.5,23.8,30.16,NW,321,0.0,4.0,62,0.00,,---,0.00,0.00,VWS V14.01,2013-12-18 10:55:00,
2013-12-18 06:01:00,35.5,23.4,30.16,NW,324,1.0,1.0,61,0.00,,---,0.00,0.00,VWS V14.01,2013-12-18 11:01:00,
2013-12-18 06:06:00,35.5,23.0,30.17,North,355,0.0,4.0,60,0.00,,---,0.00,0.00,VWS V14.01,2013-12-18 11:06:00,
2013-12-18 06:11:00,35.6,23.1,30.17,NW,323,0.0,5.0,60,0.00,,---,0.00,0.00,VWS V14.01,2013-12-18 11:11:00,
2013-12-18 06:14:00,35.6,23.1,30.17,NW,323,0.0,5.0,60,0.00,,---,0.00,0.00,VWS V14.01,2013-12-18 11:14:00,
2013-12-18 06:19:00,35.6,23.1,30.17,WSW,252,1.0,5.0,60,0.00,,---,0.00,0.00,VWS V14.01,2013-12-18 11:19:00,
2013-12-18 06:24:00,35.6,23.1,30.17,WNW,296,1.0,5.0,60,0.00,,---,0.00,0.00,VWS V14.01,2013-12-18 11:24:00,
2013-12-18 06:29:00,35.6,23.1,30.17,NNW,337,1.0,2.0,60,0.00,,---,0.00,0.00,VWS V14.01,2013-12-18 11:29:00,
2013-12-18 06:34:00,35.6,23.1,30.17,NW,324,1.0,3.0,60,0.00,,---,0.00,0.00,VWS V14.01,2013-12-18 11:34:00,
2013-12-18 06:39:00,35.5,23.0,30.17,NNW,329,0.0,3.0,60,0.00,,---,0.00,0.00,VWS V14.01,2013-12-18 11:39:00,
2013-12-18 06:44:00,35.4,22.9,30.18,NNW,331,0.0,3.0,60,0.00,,---,0.00,0.00,VWS V14.01,2013-12-18 11:44:00,
2013-12-18 06:49:00,35.3,23.2,30.19,NNW,339,0.0,4.0,61,0.00,,---,0.00,0.00,VWS V14.01,2013-12-18 11:49:00,
2013-12-18 06:54:00,35.3,23.2,30.19,NNW,339,0.0,4.0,61,0.00,,---,0.00,0.00,VWS V14.01,2013-12-18 11:54:00,
2013-12-18 06:59:00,35.1,24.2,30.19,NNW,339,0.0,0.0,64,0.00,,---,0.00,0.00,VWS V14.01,2013-12-18 11:59:00,
2013-12-18 07:04:00,35.0,24.1,30.20,NNW,339,0.0,1.0,64,0.00,,---,0.00,0.00,VWS V14.01,2013-12-18 12:04:00,
2013-12-18 07:09:00,34.7,23.4,30.20,NNW,339,0.0,1.0,63,0.00,,---,0.00,0.00,VWS V14.01,2013-12-18 12:09:00,
2013-12-18 07:14:00,34.4,23.1,30.20,NNW,339,1.0,1.0,63,0.00,,---,0.00,0.00,VWS V14.01,2013-12-18 12:14:00,
2013-12-18 07:19:00,34.2,22.9,30.20,NNW,336,0.0,1.0,63,0.00,,---,0.00,0.00,VWS V14.01,2013-12-18 12:19:00,
2013-12-18 07:24:00,34.1,23.2,30.20,NNW,336,0.0,1.0,64,0.00,,---,0.00,5.00,VWS V14.01,2013-12-18 12:24:00,
2013-12-18 07:29:00,34.0,23.1,30.20,NW,304,0.0,0.0,64,0.00,,---,0.00,7.00,VWS V14.01,2013-12-18 12:29:00,
2013-12-18 07:34:00,33.9,23.0,30.20,NW,304,0.0,0.0,64,0.00,,---,0.00,7.00,VWS V14.01,2013-12-18 12:34:00,
2013-12-18 07:39:00,33.9,23.0,30.21,NW,304,0.0,0.0,64,0.00,,---,0.00,7.00,VWS V14.01,2013-12-18 12:39:00,
2013-12-18 07:44:00,33.8,22.9,30.22,NW,304,0.0,1.0,64,0.00,,---,0.00,12.00,VWS V14.01,2013-12-18 12:44:00,
2013-12-18 07:48:00,33.7,22.8,30.22,NW,304,0.0,1.0,64,0.00,,---,0.00,14.00,VWS V14.01,2013-12-18 12:48:00,
2013-12-18 07:53:00,33.7,22.8,30.22,NW,304,0.0,1.0,64,0.00,,---,0.00,16.00,VWS V14.01,2013-12-18 12:53:00,
2013-12-18 07:58:00,33.7,23.2,30.23,NW,307,0.0,0.0,65,0.00,,---,0.00,18.00,VWS V14.01,2013-12-18 12:58:00,
2013-12-18 08:03:00,33.7,23.2,30.22,NW,307,1.0,1.0,65,0.00,,---,0.00,19.00,VWS V14.01,2013-12-18 13:03:00,
2013-12-18 08:08:00,33.7,23.2,30.22,NW,307,0.0,2.0,65,0.00,,---,0.00,21.00,VWS V14.01,2013-12-18 13:08:00,
2013-12-18 08:13:00,33.8,23.3,30.23,WNW,302,0.0,2.0,65,0.00,,---,0.00,25.00,VWS V14.01,2013-12-18 13:13:00,
2013-12-18 08:18:00,33.9,23.4,30.23,WNW,298,1.0,4.0,65,0.00,,---,0.00,25.00,VWS V14.01,2013-12-18 13:18:00,
2013-12-18 08:23:00,34.2,23.3,30.24,NNW,346,1.0,4.0,64,0.00,,---,0.00,33.00,VWS V14.01,2013-12-18 13:23:00,
2013-12-18 08:28:00,34.5,23.2,30.24,North,355,0.0,1.0,63,0.00,,---,0.00,42.00,VWS V14.01,2013-12-18 13:28:00,
2013-12-18 08:33:00,34.8,23.5,30.24,North,355,0.0,3.0,63,0.00,,---,0.00,62.00,VWS V14.01,2013-12-18 13:33:00,
2013-12-18 08:38:00,35.1,23.4,30.24,NNE,30,0.0,7.0,62,0.00,,---,0.00,79.00,VWS V14.01,2013-12-18 13:38:00,
2013-12-18 08:43:00,35.5,23.8,30.24,WNW,290,1.0,7.0,62,0.00,,---,0.00,65.00,VWS V14.01,2013-12-18 13:43:00,
2013-12-18 08:48:00,36.0,23.9,30.24,WNW,290,1.0,7.0,61,0.00,,---,0.00,79.00,VWS V14.01,2013-12-18 13:48:00,
2013-12-18 08:53:00,36.4,23.9,30.24,West,265,0.0,7.0,60,0.00,,---,0.00,130.00,VWS V14.01,2013-12-18 13:53:00,
2013-12-18 08:58:00,36.8,24.2,30.25,North,360,3.0,3.0,60,0.00,,---,0.00,107.00,VWS V14.01,2013-12-18 13:58:00,
2013-12-18 09:03:00,37.1,24.5,30.25,North,5,2.0,4.0,60,0.00,,---,0.00,111.00,VWS V14.01,2013-12-18 14:03:00,
2013-12-18 09:08:00,37.5,24.1,30.25,North,355,2.0,8.0,58,0.00,,---,0.00,125.00,VWS V14.01,2013-12-18 14:08:00,
2013-12-18 09:13:00,37.9,24.0,30.25,NW,311,1.0,8.0,57,0.00,,---,0.00,176.00,VWS V14.01,2013-12-18 14:13:00,
2013-12-18 09:18:00,38.3,24.4,30.25,North,355,0.0,8.0,57,0.00,,---,0.00,197.00,VWS V14.01,2013-12-18 14:18:00,
2013-12-18 09:23:00,38.6,24.3,30.26,WNW,302,0.0,8.0,56,0.00,,---,0.00,276.00,VWS V14.01,2013-12-18 14:23:00,
2013-12-18 09:28:00,39.0,24.2,30.26,North,5,0.0,0.0,55,0.00,,---,0.00,130.00,VWS V14.01,2013-12-18 14:28:00,
2013-12-18 09:33:00,39.4,24.6,30.26,North,355,7.0,8.0,55,0.01,,---,0.01,88.00,VWS V14.01,2013-12-18 14:33:00,
2013-12-18 09:38:00,39.6,24.3,30.26,WSW,237,4.0,8.0,54,0.01,,---,0.01,40.00,VWS V14.01,2013-12-18 14:38:00,
2013-12-18 09:43:00,39.8,24.1,30.26,West,277,0.0,9.0,53,0.01,,---,0.01,47.00,VWS V14.01,2013-12-18 14:43:00,
2013-12-18 09:48:00,39.9,23.7,30.26,North,355,5.0,9.0,52,0.01,,---,0.01,37.00,VWS V14.01,2013-12-18 14:48:00,
2013-12-18 09:53:00,40.1,24.8,30.26,NW,325,0.0,9.0,54,0.01,,---,0.01,202.00,VWS V14.01,2013-12-18 14:53:00,
2013-12-18 09:58:00,40.4,24.6,30.26,WSW,245,3.0,9.0,53,0.01,,---,0.01,167.00,VWS V14.01,2013-12-18 14:58:00,
2013-12-18 10:03:00,41.0,24.3,30.25,WSW,245,5.0,6.0,51,0.01,,---,0.01,176.00,VWS V14.01,2013-12-18 15:03:00,
2013-12-18 10:08:00,41.5,24.7,30.25,WNW,294,2.0,8.0,51,0.01,,---,0.01,181.00,VWS V14.01,2013-12-18 15:08:00,
2013-12-18 10:13:00,41.8,24.1,30.25,North,5,6.0,9.0,49,0.01,,---,0.01,91.00,VWS V14.01,2013-12-18 15:13:00,
2013-12-18 10:18:00,42.0,24.2,30.25,West,280,5.0,9.0,49,0.01,,---,0.01,264.00,VWS V14.01,2013-12-18 15:18:00,
2013-12-18 10:23:00,42.0,23.8,30.25,West,261,0.0,9.0,48,0.01,,---,0.01,185.00,VWS V14.01,2013-12-18 15:23:00,
2013-12-18 10:28:00,42.4,24.1,30.25,North,355,2.0,2.0,48,0.01,,---,0.01,118.00,VWS V14.01,2013-12-18 15:28:00,
2013-12-18 10:33:00,42.8,23.5,30.26,WSW,245,4.0,6.0,46,0.01,,---,0.01,309.00,VWS V14.01,2013-12-18 15:33:00,
2013-12-18 10:38:00,42.7,23.4,30.26,NNW,340,2.0,13.0,46,0.01,,---,0.01,181.00,VWS V14.01,2013-12-18 15:38:00,
2013-12-18 10:43:00,43.0,24.2,30.26,NNW,327,1.0,13.0,47,0.01,,---,0.01,418.00,VWS V14.01,2013-12-18 15:43:00,
2013-12-18 10:48:00,43.2,23.8,30.25,North,350,7.0,13.0,46,0.01,,---,0.01,424.00,VWS V14.01,2013-12-18 15:48:00,
2013-12-18 10:53:00,43.1,23.2,30.26,WNW,282,5.0,13.0,45,0.01,,---,0.01,436.00,VWS V14.01,2013-12-18 15:53:00,
2013-12-18 10:58:00,43.2,22.8,30.26,SSW,194,4.0,13.0,44,0.01,,---,0.01,443.00,VWS V14.01,2013-12-18 15:58:00,
2013-12-18 11:03:00,43.2,22.8,30.25,WSW,254,3.0,9.0,44,0.00,,---,0.01,446.00,VWS V14.01,2013-12-18 16:03:00,
2013-12-18 11:08:00,43.2,22.8,30.26,WNW,296,3.0,9.0,44,0.00,,---,0.01,350.00,VWS V14.01,2013-12-18 16:08:00,
2013-12-18 11:13:00,43.4,22.4,30.26,WSW,250,5.0,11.0,43,0.00,,---,0.01,218.00,VWS V14.01,2013-12-18 16:13:00,
2013-12-18 11:18:00,43.5,22.5,30.25,WNW,298,1.0,11.0,43,0.00,,---,0.01,355.00,VWS V14.01,2013-12-18 16:18:00,
2013-12-18 11:23:00,43.6,22.6,30.25,NW,323,2.0,11.0,43,0.00,,---,0.01,454.00,VWS V14.01,2013-12-18 16:23:00,
2013-12-18 11:28:00,43.8,22.8,30.25,SW,215,1.0,11.0,43,0.00,,---,0.01,471.00,VWS V14.01,2013-12-18 16:28:00,
2013-12-18 11:33:00,44.3,23.8,30.25,NE,55,4.0,10.0,44,0.00,,---,0.01,475.00,VWS V14.01,2013-12-18 16:33:00,
2013-12-18 11:38:00,44.3,22.7,30.25,West,274,1.0,12.0,42,0.00,,---,0.01,390.00,VWS V14.01,2013-12-18 16:38:00,
2013-12-18 11:43:00,44.6,22.9,30.25,NW,311,10.0,12.0,42,0.00,,---,0.01,121.00,VWS V14.01,2013-12-18 16:43:00,
2013-12-18 11:48:00,44.9,22.6,30.24,West,261,1.0,12.0,41,0.00,,---,0.01,40.00,VWS V14.01,2013-12-18 16:48:00,
2013-12-18 11:53:00,45.2,22.9,30.24,NW,305,5.0,12.0,41,0.00,,---,0.01,271.00,VWS V14.01,2013-12-18 16:53:00,
2013-12-18 11:58:00,45.4,23.7,30.23,North,355,4.0,12.0,42,0.00,,---,0.01,148.00,VWS V14.01,2013-12-18 16:58:00,
2013-12-18 12:03:00,45.9,23.5,30.23,SW,229,6.0,7.0,41,0.00,,---,0.01,269.00,VWS V14.01,2013-12-18 17:03:00,
2013-12-18 12:08:00,45.8,22.3,30.23,NW,323,3.0,7.0,39,0.00,,---,0.01,471.00,VWS V14.01,2013-12-18 17:08:00,
2013-12-18 12:13:00,45.9,23.0,30.23,NW,321,4.0,8.0,40,0.00,,---,0.01,487.00,VWS V14.01,2013-12-18 17:13:00,
2013-12-18 12:18:00,45.8,22.3,30.23,WSW,244,8.0,9.0,39,0.00,,---,0.01,485.00,VWS V14.01,2013-12-18 17:18:00,
2013-12-18 12:23:00,45.6,22.1,30.23,NNE,24,1.0,9.0,39,0.00,,---,0.01,487.00,VWS V14.01,2013-12-18 17:23:00,
2013-12-18 12:28:00,45.9,22.4,30.22,WSW,250,2.0,9.0,39,0.00,,---,0.01,281.00,VWS V14.01,2013-12-18 17:28:00,
2013-12-18 12:33:00,46.2,23.2,30.22,NNE,29,2.0,5.0,40,0.00,,---,0.01,149.00,VWS V14.01,2013-12-18 17:33:00,
2013-12-18 12:38:00,46.3,22.1,30.22,West,268,1.0,7.0,38,0.00,,---,0.01,178.00,VWS V14.01,2013-12-18 17:38:00,
2013-12-18 12:43:00,46.5,22.3,30.22,WSW,252,5.0,10.0,38,0.00,,---,0.01,181.00,VWS V14.01,2013-12-18 17:43:00,
2013-12-18 12:48:00,46.6,23.6,30.22,WNW,303,3.0,10.0,40,0.00,,---,0.01,153.00,VWS V14.01,2013-12-18 17:48:00,
2013-12-18 12:53:00,46.8,22.5,30.22,WSW,237,4.0,10.0,38,0.00,,---,0.01,54.00,VWS V14.01,2013-12-18 17:53:00,
2013-12-18 12:58:00,46.7,22.5,30.21,WSW,238,1.0,10.0,38,0.00,,---,0.01,169.00,VWS V14.01,2013-12-18 17:58:00,
2013-12-18 13:03:00,46.8,21.9,30.21,North,5,4.0,7.0,37,0.00,,---,0.01,40.00,VWS V14.01,2013-12-18 18:03:00,
2013-12-18 13:08:00,46.8,21.9,30.21,SW,229,5.0,9.0,37,0.00,,---,0.01,450.00,VWS V14.01,2013-12-18 18:08:00,
2013-12-18 13:13:00,46.9,21.4,30.20,WNW,301,5.0,12.0,36,0.00,,---,0.01,406.00,VWS V14.01,2013-12-18 18:13:00,
2013-12-18 13:18:00,46.7,22.5,30.21,West,260,4.0,12.0,38,0.00,,---,0.01,230.00,VWS V14.01,2013-12-18 18:18:00,
2013-12-18 13:23:00,47.1,22.2,30.21,West,265,6.0,12.0,37,0.00,,---,0.01,227.00,VWS V14.01,2013-12-18 18:23:00,
2013-12-18 13:28:00,47.4,22.5,30.21,NNE,12,0.0,12.0,37,0.00,,---,0.01,336.00,VWS V14.01,2013-12-18 18:28:00,
2013-12-18 13:33:00,48.0,23.6,30.21,West,276,1.0,6.0,38,0.00,,---,0.01,434.00,VWS V14.01,2013-12-18 18:33:00,
2013-12-18 13:38:00,48.2,21.9,30.21,NE,40,1.0,11.0,35,0.00,,---,0.01,279.00,VWS V14.01,2013-12-18 18:38:00,
2013-12-18 13:43:00,48.0,21.7,30.21,WSW,237,5.0,11.0,35,0.00,,---,0.01,155.00,VWS V14.01,2013-12-18 18:43:00,
2013-12-18 13:48:00,47.6,21.3,30.21,NE,48,4.0,11.0,35,0.00,,---,0.01,411.00,VWS V14.01,2013-12-18 18:48:00,
2013-12-18 13:53:00,48.1,22.4,30.21,WNW,300,1.0,11.0,36,0.00,,---,0.01,404.00,VWS V14.01,2013-12-18 18:53:00,
2013-12-18 13:58:00,47.9,21.6,30.21,NNE,14,3.0,14.0,35,0.00,,---,0.01,396.00,VWS V14.01,2013-12-18 18:58:00,
2013-12-18 14:03:00,47.8,21.5,30.21,West,262,5.0,8.0,35,0.00,,---,0.01,387.00,VWS V14.01,2013-12-18 19:03:00,
2013-12-18 14:08:00,47.9,22.2,30.21,NNE,23,5.0,8.0,36,0.00,,---,0.01,380.00,VWS V14.01,2013-12-18 19:08:00,
2013-12-18 14:13:00,48.2,22.5,30.21,SW,233,5.0,10.0,36,0.00,,---,0.01,357.00,VWS V14.01,2013-12-18 19:13:00,
2013-12-18 14:18:00,48.1,21.1,30.21,NW,325,1.0,10.0,34,0.00,,---,0.01,288.00,VWS V14.01,2013-12-18 19:18:00,
2013-12-18 14:23:00,48.3,21.9,30.21,North,351,2.0,12.0,35,0.00,,---,0.01,167.00,VWS V14.01,2013-12-18 19:23:00,
2013-12-18 14:28:00,48.2,21.2,30.21,WSW,252,1.0,12.0,34,0.00,,---,0.01,151.00,VWS V14.01,2013-12-18 19:28:00,
2013-12-18 14:33:00,48.1,21.1,30.21,NNW,334,0.0,6.0,34,0.00,,---,0.01,236.00,VWS V14.01,2013-12-18 19:33:00,
2013-12-18 14:38:00,48.2,21.2,30.21,North,360,5.0,7.0,34,0.00,,---,0.01,146.00,VWS V14.01,2013-12-18 19:38:00,
2013-12-18 14:43:00,48.5,21.4,30.21,SE,128,2.0,7.0,34,0.00,,---,0.01,47.00,VWS V14.01,2013-12-18 19:43:00,
2013-12-18 14:48:00,48.6,21.5,30.21,NNE,20,4.0,9.0,34,0.00,,---,0.01,255.00,VWS V14.01,2013-12-18 19:48:00,
2013-12-18 14:53:00,48.3,21.2,30.21,WNW,292,2.0,9.0,34,0.00,,---,0.01,213.00,VWS V14.01,2013-12-18 19:53:00,
2013-12-18 14:58:00,48.5,21.4,30.22,NNE,17,2.0,9.0,34,0.00,,---,0.01,58.00,VWS V14.01,2013-12-18 19:58:00,
2013-12-18 15:03:00,48.7,20.9,30.22,NNW,329,1.0,6.0,33,0.00,,---,0.01,105.00,VWS V14.01,2013-12-18 20:03:00,
2013-12-18 15:08:00,48.9,21.1,30.22,NNW,333,0.0,8.0,33,0.00,,---,0.01,91.00,VWS V14.01,2013-12-18 20:08:00,
2013-12-18 15:13:00,49.0,21.2,30.22,West,266,5.0,8.0,33,0.00,,---,0.01,137.00,VWS V14.01,2013-12-18 20:13:00,
2013-12-18 15:18:00,49.0,21.2,30.22,NNW,346,5.0,8.0,33,0.00,,---,0.01,84.00,VWS V14.01,2013-12-18 20:18:00,
2013-12-18 15:23:00,49.0,19.7,30.22,NW,318,3.0,8.0,31,0.00,,---,0.01,91.00,VWS V14.01,2013-12-18 20:23:00,
2013-12-18 15:28:00,49.0,19.7,30.22,SSW,202,3.0,9.0,31,0.00,,---,0.01,165.00,VWS V14.01,2013-12-18 20:28:00,
2013-12-18 15:33:00,49.0,20.4,30.22,WSW,248,5.0,6.0,32,0.00,,---,0.01,167.00,VWS V14.01,2013-12-18 20:33:00,
2013-12-18 15:38:00,49.2,20.6,30.22,WSW,253,4.0,6.0,32,0.00,,---,0.01,160.00,VWS V14.01,2013-12-18 20:38:00,
2013-12-18 15:43:00,49.3,20.0,30.22,North,355,1.0,7.0,31,0.00,,---,0.01,142.00,VWS V14.01,2013-12-18 20:43:00,
2013-12-18 15:48:00,49.4,20.0,30.22,North,9,1.0,7.0,31,0.00,,---,0.01,128.00,VWS V14.01,2013-12-18 20:48:00,
2013-12-18 15:53:00,49.5,20.1,30.22,West,266,1.0,7.0,31,0.00,,---,0.01,114.00,VWS V14.01,2013-12-18 20:53:00,
2013-12-18 15:58:00,49.6,20.2,30.22,NW,315,0.0,7.0,31,0.00,,---,0.01,100.00,VWS V14.01,2013-12-18 20:58:00,
2013-12-18 16:03:00,49.7,20.3,30.22,NW,325,1.0,4.0,31,0.00,,---,0.01,84.00,VWS V14.01,2013-12-18 21:03:00,
2013-12-18 16:08:00,49.7,20.3,30.22,West,277,0.0,5.0,31,0.00,,---,0.01,70.00,VWS V14.01,2013-12-18 21:08:00,
2013-12-18 16:13:00,49.7,20.3,30.22,WSW,244,0.0,5.0,31,0.00,,---,0.01,58.00,VWS V14.01,2013-12-18 21:13:00,
2013-12-18 16:18:00,49.7,19.5,30.22,WNW,284,3.0,5.0,30,0.00,,---,0.01,21.00,VWS V14.01,2013-12-18 21:18:00,
2013-12-18 16:23:00,49.6,19.5,30.22,NNW,348,0.0,5.0,30,0.00,,---,0.01,19.00,VWS V14.01,2013-12-18 21:23:00,
2013-12-18 16:28:00,49.2,20.6,30.23,North,5,0.0,5.0,32,0.00,,---,0.01,16.00,VWS V14.01,2013-12-18 21:28:00,
2013-12-18 16:33:00,48.8,20.3,30.23,NNW,348,1.0,2.0,32,0.00,,---,0.01,14.00,VWS V14.01,2013-12-18 21:33:00,
2013-12-18 16:38:00,48.5,20.0,30.23,NNW,348,1.0,2.0,32,0.00,,---,0.01,12.00,VWS V14.01,2013-12-18 21:38:00,
2013-12-18 16:43:00,48.0,19.6,30.23,NNW,338,0.0,3.0,32,0.00,,---,0.01,12.00,VWS V14.01,2013-12-18 21:43:00,
2013-12-18 16:48:00,47.6,19.9,30.23,NNW,338,0.0,3.0,33,0.00,,---,0.01,11.00,VWS V14.01,2013-12-18 21:48:00,
2013-12-18 16:53:00,47.3,20.4,30.23,NNW,338,0.0,3.0,34,0.00,,---,0.01,7.00,VWS V14.01,2013-12-18 21:53:00,
2013-12-18 16:58:00,47.0,20.8,30.23,NNW,338,0.0,3.0,35,0.00,,---,0.01,5.00,VWS V14.01,2013-12-18 21:58:00,
2013-12-18 17:03:00,46.8,22.5,30.23,NNW,338,0.0,0.0,38,0.00,,---,0.01,0.00,VWS V14.01,2013-12-18 22:03:00,
2013-12-18 17:08:00,46.4,22.8,30.23,NNW,338,0.0,0.0,39,0.00,,---,0.01,0.00,VWS V14.01,2013-12-18 22:08:00,
2013-12-18 17:13:00,45.9,23.5,30.23,NNW,338,0.0,0.0,41,0.00,,---,0.01,0.00,VWS V14.01,2013-12-18 22:13:00,
2013-12-18 17:18:00,45.4,24.2,30.23,NNW,338,0.0,0.0,43,0.00,,---,0.01,0.00,VWS V14.01,2013-12-18 22:18:00,
2013-12-18 17:23:00,44.9,24.9,30.23,NNW,338,0.0,0.0,45,0.00,,---,0.01,0.00,VWS V14.01,2013-12-18 22:23:00,
2013-12-18 17:28:00,44.2,25.3,30.23,NNW,338,0.0,0.0,47,0.00,,---,0.01,0.00,VWS V14.01,2013-12-18 22:28:00,
2013-12-18 17:33:00,43.5,25.6,30.23,NNW,338,0.0,0.0,49,0.00,,---,0.01,0.00,VWS V14.01,2013-12-18 22:33:00,
2013-12-18 17:38:00,43.0,25.6,30.23,NNW,338,0.0,0.0,50,0.00,,---,0.01,0.00,VWS V14.01,2013-12-18 22:38:00,
2013-12-18 17:43:00,42.4,26.0,30.23,NNW,338,0.0,0.0,52,0.00,,---,0.01,0.00,VWS V14.01,2013-12-18 22:43:00,
2013-12-18 17:48:00,41.8,25.9,30.23,NNW,338,0.0,0.0,53,0.00,,---,0.01,0.00,VWS V14.01,2013-12-18 22:48:00,
2013-12-18 17:53:00,41.0,25.6,30.23,NNW,338,0.0,0.0,54,0.00,,---,0.01,0.00,VWS V14.01,2013-12-18 22:53:00,
2013-12-18 17:58:00,40.4,25.5,30.23,NNW,338,0.0,1.0,55,0.00,,---,0.01,0.00,VWS V14.01,2013-12-18 22:58:00,
2013-12-18 18:03:00,39.8,25.0,30.23,NNW,338,0.0,0.0,55,0.00,,---,0.01,0.00,VWS V14.01,2013-12-18 23:03:00,
2013-12-18 18:08:00,39.5,25.1,30.23,NNW,338,0.0,0.0,56,0.00,,---,0.01,0.00,VWS V14.01,2013-12-18 23:08:00,
2013-12-18 18:13:00,39.1,26.0,30.24,NNW,338,0.0,0.0,59,0.00,,---,0.01,0.00,VWS V14.01,2013-12-18 23:13:00,
2013-12-18 18:18:00,38.7,25.6,30.24,NNW,338,0.0,0.0,59,0.00,,---,0.01,0.00,VWS V14.01,2013-12-18 23:18:00,
2013-12-18 18:23:00,38.3,25.2,30.24,NNW,338,0.0,0.0,59,0.00,,---,0.01,0.00,VWS V14.01,2013-12-18 23:23:00,
2013-12-18 18:28:00,38.0,25.4,30.24,NNW,338,0.0,0.0,60,0.00,,---,0.01,0.00,VWS V14.01,2013-12-18 23:28:00,
2013-12-18 18:33:00,37.6,25.0,30.24,NNW,338,0.0,0.0,60,0.00,,---,0.01,0.00,VWS V14.01,2013-12-18 23:33:00,
2013-12-18 18:38:00,37.2,25.0,30.24,NNW,338,0.0,0.0,61,0.00,,---,0.01,0.00,VWS V14.01,2013-12-18 23:38:00,
2013-12-18 18:43:00,36.8,25.4,30.25,NNW,338,0.0,0.0,63,0.00,,---,0.01,0.00,VWS V14.01,2013-12-18 23:43:00,
2013-12-18 18:48:00,36.5,25.9,30.25,NNW,338,0.0,0.0,65,0.00,,---,0.01,0.00,VWS V14.01,2013-12-18 23:48:00,
2013-12-18 18:53:00,36.1,25.1,30.25,NNW,338,0.0,0.0,64,0.00,,---,0.01,0.00,VWS V14.01,2013-12-18 23:53:00,
2013-12-18 18:58:00,35.7,24.7,30.25,NNW,338,0.0,0.0,64,0.00,,---,0.01,0.00,VWS V14.01,2013-12-18 23:58:00,
2013-12-18 19:03:00,35.5,25.3,30.26,NNW,338,0.0,0.0,66,0.00,,---,0.01,0.00,VWS V14.01,2013-12-19 00:03:00,
2013-12-18 19:08:00,35.2,25.4,30.26,NNW,338,0.0,0.0,67,0.00,,---,0.01,0.00,VWS V14.01,2013-12-19 00:08:00,
2013-12-18 19:13:00,34.9,25.4,30.26,NNW,338,0.0,0.0,68,0.00,,---,0.01,0.00,VWS V14.01,2013-12-19 00:13:00,
2013-12-18 19:18:00,34.7,25.2,30.25,NNW,338,0.0,0.0,68,0.00,,---,0.01,0.00,VWS V14.01,2013-12-19 00:18:00,
2013-12-18 19:23:00,34.3,24.9,30.25,NNW,338,0.0,0.0,68,0.00,,---,0.01,0.00,VWS V14.01,2013-12-19 00:23:00,
2013-12-18 19:28:00,34.0,24.9,30.25,NNW,338,0.0,0.0,69,0.00,,---,0.01,0.00,VWS V14.01,2013-12-19 00:28:00,
2013-12-18 19:33:00,33.8,25.1,30.25,NNW,338,0.0,0.0,70,0.00,,---,0.01,0.00,VWS V14.01,2013-12-19 00:33:00,
2013-12-18 19:38:00,33.5,25.1,30.25,NNW,338,0.0,0.0,71,0.00,,---,0.01,0.00,VWS V14.01,2013-12-19 00:38:00,
2013-12-18 19:43:00,33.2,24.8,30.25,NNW,338,0.0,0.0,71,0.00,,---,0.01,0.00,VWS V14.01,2013-12-19 00:43:00,
2013-12-18 19:48:00,33.0,24.6,30.26,NNW,338,0.0,0.0,71,0.00,,---,0.01,0.00,VWS V14.01,2013-12-19 00:48:00,
2013-12-18 19:53:00,32.8,24.5,30.26,NNW,338,0.0,0.0,71,0.00,,---,0.01,0.00,VWS V14.01,2013-12-19 00:53:00,
2013-12-18 19:58:00,32.6,24.6,30.26,NNW,338,0.0,0.0,72,0.00,,---,0.01,0.00,VWS V14.01,2013-12-19 00:58:00,
2013-12-18 20:03:00,32.5,24.5,30.26,NNW,338,0.0,0.0,72,0.00,,---,0.01,0.00,VWS V14.01,2013-12-19 01:03:00,
2013-12-18 20:08:00,32.3,24.3,30.26,NNW,338,0.0,0.0,72,0.00,,---,0.01,0.00,VWS V14.01,2013-12-19 01:08:00,
2013-12-18 20:13:00,32.1,24.4,30.26,NNW,338,0.0,0.0,73,0.00,,---,0.01,0.00,VWS V14.01,2013-12-19 01:13:00,
2013-12-18 20:18:00,31.9,24.2,30.26,NNW,338,0.0,0.0,73,0.00,,---,0.01,0.00,VWS V14.01,2013-12-19 01:18:00,
2013-12-18 20:23:00,31.8,24.1,30.26,NNW,338,0.0,0.0,73,0.00,,---,0.01,0.00,VWS V14.01,2013-12-19 01:23:00,
2013-12-18 20:28:00,31.7,23.7,30.26,NNW,338,0.0,0.0,72,0.00,,---,0.01,0.00,VWS V14.01,2013-12-19 01:28:00,
2013-12-18 20:33:00,31.5,23.9,30.26,NNW,338,0.0,0.0,73,0.00,,---,0.01,0.00,VWS V14.01,2013-12-19 01:33:00,
2013-12-18 20:38:00,31.3,23.7,30.26,NNW,338,0.0,0.0,73,0.00,,---,0.01,0.00,VWS V14.01,2013-12-19 01:38:00,
2013-12-18 20:43:00,31.2,23.6,30.26,NNW,338,0.0,0.0,73,0.00,,---,0.01,0.00,VWS V14.01,2013-12-19 01:43:00,
2013-12-18 20:48:00,31.0,23.7,30.26,NNW,338,0.0,0.0,74,0.00,,---,0.01,0.00,VWS V14.01,2013-12-19 01:48:00,
2013-12-18 20:53:00,30.8,23.8,30.26,NNW,338,0.0,0.0,75,0.00,,---,0.01,0.00,VWS V14.01,2013-12-19 01:53:00,
2013-12-18 20:58:00,30.7,23.7,30.26,NNW,338,0.0,0.0,75,0.00,,---,0.01,0.00,VWS V14.01,2013-12-19 01:58:00,
2013-12-18 21:03:00,30.6,23.6,30.26,NNW,338,0.0,0.0,75,0.00,,---,0.01,0.00,VWS V14.01,2013-12-19 02:03:00,
2013-12-18 21:08:00,30.5,23.5,30.26,NNW,338,0.0,0.0,75,0.00,,---,0.01,0.00,VWS V14.01,2013-12-19 02:08:00,
2013-12-18 21:13:00,30.3,23.3,30.26,NNW,338,0.0,0.0,75,0.00,,---,0.01,0.00,VWS V14.01,2013-12-19 02:13:00,
2013-12-18 21:18:00,30.2,23.2,30.26,NNW,338,0.0,0.0,75,0.00,,---,0.01,0.00,VWS V14.01,2013-12-19 02:18:00,
2013-12-18 21:23:00,30.0,23.0,30.26,NNW,338,0.0,0.0,75,0.00,,---,0.01,0.00,VWS V14.01,2013-12-19 02:23:00,
2013-12-18 21:28:00,29.9,23.3,30.26,NNW,338,0.0,0.0,76,0.00,,---,0.01,0.00,VWS V14.01,2013-12-19 02:28:00,
2013-12-18 21:33:00,29.8,23.5,30.26,NNW,338,0.0,0.0,77,0.00,,---,0.01,0.00,VWS V14.01,2013-12-19 02:33:00,
2013-12-18 21:38:00,29.8,23.5,30.27,NNW,338,0.0,0.0,77,0.00,,---,0.01,0.00,VWS V14.01,2013-12-19 02:38:00,
2013-12-18 21:43:00,29.7,23.7,30.26,NNW,338,0.0,0.0,78,0.00,,---,0.01,0.00,VWS V14.01,2013-12-19 02:43:00,
2013-12-18 21:48:00,29.7,23.7,30.27,NNW,338,0.0,0.0,78,0.00,,---,0.01,0.00,VWS V14.01,2013-12-19 02:48:00,
2013-12-18 21:53:00,29.6,23.3,30.27,NNW,338,0.0,0.0,77,0.00,,---,0.01,0.00,VWS V14.01,2013-12-19 02:53:00,
2013-12-18 21:58:00,29.5,23.5,30.27,NNW,338,0.0,0.0,78,0.00,,---,0.01,0.00,VWS V14.01,2013-12-19 02:58:00,
2013-12-18 22:03:00,29.5,23.5,30.27,NNW,338,0.0,0.0,78,0.00,,---,0.01,0.00,VWS V14.01,2013-12-19 03:03:00,
2013-12-18 22:07:00,29.4,23.4,30.27,NNW,338,0.0,0.0,78,0.00,,---,0.01,0.00,VWS V14.01,2013-12-19 03:07:00,
2013-12-18 22:12:00,29.3,23.3,30.27,NNW,338,0.0,0.0,78,0.00,,---,0.01,0.00,VWS V14.01,2013-12-19 03:12:00,
2013-12-18 22:17:00,29.2,23.2,30.28,NNW,338,0.0,0.0,78,0.00,,---,0.01,0.00,VWS V14.01,2013-12-19 03:17:00,
2013-12-18 22:22:00,29.2,23.2,30.28,NNW,338,0.0,0.0,78,0.00,,---,0.01,0.00,VWS V14.01,2013-12-19 03:22:00,
2013-12-18 22:27:00,29.1,23.1,30.28,NNW,338,0.0,0.0,78,0.00,,---,0.01,0.00,VWS V14.01,2013-12-19 03:27:00,
2013-12-18 22:32:00,29.0,23.0,30.28,NNW,338,0.0,0.0,78,0.00,,---,0.01,0.00,VWS V14.01,2013-12-19 03:32:00,
2013-12-18 22:37:00,28.9,23.2,30.29,NNW,338,0.0,0.0,79,0.00,,---,0.01,0.00,VWS V14.01,2013-12-19 03:37:00,
2013-12-18 22:42:00,28.9,23.2,30.29,NNW,338,0.0,0.0,79,0.00,,---,0.01,0.00,VWS V14.01,2013-12-19 03:42:00,
2013-12-18 22:47:00,28.8,22.8,30.29,NNW,338,0.0,0.0,78,0.00,,---,0.01,0.00,VWS V14.01,2013-12-19 03:47:00,
2013-12-18 22:52:00,28.7,22.7,30.29,NNW,338,0.0,0.0,78,0.00,,---,0.01,0.00,VWS V14.01,2013-12-19 03:52:00,
2013-12-18 22:57:00,28.7,22.7,30.29,NNW,338,0.0,0.0,78,0.00,,---,0.01,0.00,VWS V14.01,2013-12-19 03:57:00,
2013-12-18 23:02:00,28.7,22.7,30.29,NNW,338,0.0,0.0,78,0.00,,---,0.00,0.00,VWS V14.01,2013-12-19 04:02:00,
2013-12-18 23:07:00,28.6,22.9,30.28,NNW,338,0.0,0.0,79,0.00,,---,0.00,0.00,VWS V14.01,2013-12-19 04:07:00,
2013-12-18 23:12:00,28.6,22.6,30.28,NNW,338,0.0,0.0,78,0.00,,---,0.00,0.00,VWS V14.01,2013-12-19 04:12:00,
2013-12-18 23:17:00,28.5,22.8,30.29,NNW,338,0.0,0.0,79,0.00,,---,0.00,0.00,VWS V14.01,2013-12-19 04:17:00,
2013-12-18 23:22:00,28.5,22.8,30.29,NNW,338,0.0,0.0,79,0.00,,---,0.00,0.00,VWS V14.01,2013-12-19 04:22:00,
2013-12-18 23:27:00,28.5,22.8,30.29,NNW,338,0.0,0.0,79,0.00,,---,0.00,0.00,VWS V14.01,2013-12-19 04:27:00,
2013-12-18 23:32:00,28.4,22.7,30.29,NNW,338,0.0,0.0,79,0.00,,---,0.00,0.00,VWS V14.01,2013-12-19 04:32:00,
2013-12-18 23:37:00,28.4,23.0,30.28,NNW,338,0.0,0.0,80,0.00,,---,0.00,0.00,VWS V14.01,2013-12-19 04:37:00,
2013-12-18 23:42:00,28.4,23.0,30.28,NNW,338,0.0,0.0,80,0.00,,---,0.00,0.00,VWS V14.01,2013-12-19 04:42:00,
2013-12-18 23:47:00,28.3,22.9,30.28,NNW,338,0.0,0.0,80,0.00,,---,0.00,0.00,VWS V14.01,2013-12-19 04:47:00,
2013-12-18 23:52:00,28.3,22.9,30.28,NNW,338,0.0,0.0,80,0.00,,---,0.00,0.00,VWS V14.01,2013-12-19 04:52:00,
2013-12-18 23:57:00,28.3,22.9,30.28,NNW,338,0.0,0.0,80,0.00,,---,0.00,0.00,VWS V14.01,2013-12-19 04:57:00,